Time;durP1;ratioP1;P1;durP2;ratioP2;P2;SDS_P1;SDS_P2;PMS_P1;PMS_P2;Temp;Humidity;BMP_temperature;BMP_pressure;BME280_temperature;BME280_humidity;BME280_pressure;Samples;Min_cycle;Max_cycle;Signal;HPM_P1;HPM_P2
2023/09/27 00:01:46;;;;;;;24.50;19.20;;;;;;;;;;5055841;28;20741;-71
2023/09/27 00:04:11;;;;;;;24.38;19.65;;;;;;;;;;5083317;28;20222;-71
2023/09/27 00:06:36;;;;;;;24.10;19.30;;;;;;;;;;5085965;28;20245;-70
2023/09/27 00:09:03;;;;;;;24.70;19.38;;;;;;;;;;5091863;28;20195;-70
2023/09/27 00:11:29;;;;;;;22.35;18.30;;;;;;;;;;5059729;28;20188;-71
2023/09/27 00:13:54;;;;;;;20.83;18.33;;;;;;;;;;5055013;28;20643;-72
2023/09/27 00:16:20;;;;;;;25.33;19.75;;;;;;;;;;5073487;28;20220;-71
2023/09/27 00:18:45;;;;;;;22.08;18.35;;;;;;;;;;5093181;28;20276;-71
2023/09/27 00:21:11;;;;;;;29.23;19.77;;;;;;;;;;5091146;28;20203;-72
2023/09/27 00:23:36;;;;;;;23.67;18.33;;;;;;;;;;5068895;28;20260;-71
2023/09/27 00:26:01;;;;;;;23.48;18.92;;;;;;;;;;5094515;28;20251;-71
2023/09/27 00:28:27;;;;;;;22.65;17.83;;;;;;;;;;5092018;28;20828;-71
2023/09/27 00:30:52;;;;;;;22.60;17.63;;;;;;;;;;5101527;28;20199;-71
2023/09/27 00:33:18;;;;;;;22.20;18.17;;;;;;;;;;5072181;28;20268;-71
2023/09/27 00:35:50;;;;;;;22.88;19.05;;;;;;;;;;5089891;28;20560;-71
2023/09/27 00:38:15;;;;;;;21.65;16.95;;;;;;;;;;5092580;28;20180;-71
2023/09/27 00:40:47;;;;;;;24.42;17.70;;;;;;;;;;5097725;28;20230;-71
2023/09/27 00:43:30;;;;;;;22.15;17.50;;;;;;;;;;5072763;28;20207;-71
2023/09/27 00:46:05;;;;;;;21.27;16.63;;;;;;;;;;5096092;28;20183;-71
2023/09/27 00:48:32;;;;;;;20.08;16.75;;;;;;;;;;5072419;28;20596;-72
2023/09/27 00:50:58;;;;;;;20.20;15.73;;;;;;;;;;5091363;28;20279;-71
2023/09/27 00:53:26;;;;;;;22.92;17.05;;;;;;;;;;5090993;28;20609;-71
2023/09/27 00:55:52;;;;;;;24.20;16.63;;;;;;;;;;5073123;28;20511;-71
2023/09/27 00:58:19;;;;;;;20.63;16.35;;;;;;;;;;5093366;28;20192;-71
2023/09/27 01:00:50;;;;;;;20.13;16.90;;;;;;;;;;5082546;28;20207;-71
2023/09/27 01:03:16;;;;;;;20.35;17.33;;;;;;;;;;5092170;28;20589;-71
2023/09/27 01:05:42;;;;;;;23.35;17.15;;;;;;;;;;5097342;28;20286;-71
2023/09/27 01:08:08;;;;;;;22.85;18.52;;;;;;;;;;5086766;28;20188;-71
2023/09/27 01:10:37;;;;;;;23.00;19.17;;;;;;;;;;5087426;28;20237;-72
2023/09/27 01:13:03;;;;;;;30.10;22.92;;;;;;;;;;5087948;28;20184;-71
2023/09/27 01:15:29;;;;;;;27.80;22.42;;;;;;;;;;5092322;28;20203;-71
2023/09/27 01:18:00;;;;;;;28.80;23.17;;;;;;;;;;5087643;28;20211;-71
2023/09/27 01:20:28;;;;;;;28.55;22.73;;;;;;;;;;5071000;28;20219;-71
2023/09/27 01:22:58;;;;;;;36.00;26.17;;;;;;;;;;5088773;28;20195;-71
2023/09/27 01:25:27;;;;;;;33.58;25.67;;;;;;;;;;5072149;28;20681;-71
2023/09/27 01:27:53;;;;;;;33.25;25.20;;;;;;;;;;5087122;28;20279;-71
2023/09/27 01:30:19;;;;;;;34.08;26.88;;;;;;;;;;5071323;28;20287;-71
2023/09/27 01:32:44;;;;;;;37.05;29.38;;;;;;;;;;5086405;28;20196;-71
2023/09/27 01:35:09;;;;;;;45.28;33.67;;;;;;;;;;5071854;28;20630;-71
2023/09/27 01:37:35;;;;;;;42.05;34.72;;;;;;;;;;5095620;28;20277;-72
2023/09/27 01:40:00;;;;;;;39.67;31.92;;;;;;;;;;5072655;28;20362;-71
2023/09/27 01:42:26;;;;;;;42.33;33.55;;;;;;;;;;5093028;28;20324;-72
2023/09/27 01:44:51;;;;;;;38.63;30.10;;;;;;;;;;5096104;28;20203;-72
2023/09/27 01:47:16;;;;;;;39.35;30.80;;;;;;;;;;5090620;28;20638;-72
2023/09/27 01:49:42;;;;;;;39.03;29.65;;;;;;;;;;5071921;28;20191;-72
2023/09/27 01:52:07;;;;;;;38.58;31.40;;;;;;;;;;5087581;28;20587;-72
2023/09/27 01:54:33;;;;;;;39.17;31.20;;;;;;;;;;5071139;28;20192;-72
2023/09/27 01:56:58;;;;;;;37.65;30.40;;;;;;;;;;5093802;28;20436;-72
2023/09/27 01:59:23;;;;;;;42.05;31.23;;;;;;;;;;5094596;28;20288;-72
2023/09/27 02:01:49;;;;;;;38.42;29.17;;;;;;;;;;5053651;28;20243;-72
2023/09/27 02:04:14;;;;;;;35.63;28.77;;;;;;;;;;5086492;28;20614;-70
2023/09/27 02:06:39;;;;;;;30.63;26.95;;;;;;;;;;5089796;28;20623;-71
2023/09/27 02:09:06;;;;;;;34.38;26.20;;;;;;;;;;5102865;28;20202;-70
2023/09/27 02:11:31;;;;;;;35.03;26.80;;;;;;;;;;5095219;28;20274;-70
2023/09/27 02:13:57;;;;;;;29.80;24.52;;;;;;;;;;5071131;28;20274;-71
2023/09/27 02:16:22;;;;;;;29.83;22.90;;;;;;;;;;5095971;28;20626;-71
2023/09/27 02:18:49;;;;;;;33.20;25.00;;;;;;;;;;5071635;28;20222;-71
2023/09/27 02:21:14;;;;;;;34.33;27.65;;;;;;;;;;5095034;28;20516;-71
2023/09/27 02:23:40;;;;;;;37.00;30.02;;;;;;;;;;5088304;28;20203;-71
2023/09/27 02:26:05;;;;;;;46.00;33.33;;;;;;;;;;5091700;28;20237;-70
2023/09/27 02:28:31;;;;;;;46.53;35.15;;;;;;;;;;5088981;28;20203;-70
2023/09/27 02:30:58;;;;;;;42.65;31.92;;;;;;;;;;5088675;28;20188;-71
2023/09/27 02:33:25;;;;;;;39.17;31.00;;;;;;;;;;5069304;28;20295;-71
2023/09/27 02:35:50;;;;;;;44.10;30.88;;;;;;;;;;5097889;28;20192;-71
2023/09/27 02:38:15;;;;;;;42.45;31.00;;;;;;;;;;5091798;28;20210;-71
2023/09/27 02:40:42;;;;;;;38.88;30.80;;;;;;;;;;5085729;28;20209;-71
2023/09/27 02:43:07;;;;;;;39.97;30.52;;;;;;;;;;5067446;28;20188;-71
2023/09/27 02:45:34;;;;;;;36.55;29.13;;;;;;;;;;5088816;28;20191;-71
2023/09/27 02:48:01;;;;;;;32.75;26.83;;;;;;;;;;5090002;28;20245;-71
2023/09/27 02:50:26;;;;;;;34.97;27.45;;;;;;;;;;5088388;28;20195;-71
2023/09/27 02:52:51;;;;;;;37.28;27.48;;;;;;;;;;5086405;28;20936;-72
2023/09/27 02:55:18;;;;;;;33.75;27.65;;;;;;;;;;5071942;28;20235;-71
2023/09/27 02:57:50;;;;;;;42.28;28.33;;;;;;;;;;5066591;28;20616;-71
2023/09/27 03:00:16;;;;;;;41.90;29.92;;;;;;;;;;5092507;28;20243;-71
2023/09/27 03:02:41;;;;;;;39.17;29.20;;;;;;;;;;5084549;28;20264;-71
2023/09/27 03:05:07;;;;;;;35.83;28.58;;;;;;;;;;5072995;28;20192;-71
2023/09/27 03:07:36;;;;;;;49.45;33.85;;;;;;;;;;5086577;28;20549;-71
2023/09/27 03:10:04;;;;;;;45.47;33.60;;;;;;;;;;5051616;28;20234;-71
2023/09/27 03:12:29;;;;;;;47.67;32.78;;;;;;;;;;5086783;28;20220;-71
2023/09/27 03:14:55;;;;;;;43.10;32.75;;;;;;;;;;5092528;28;20564;-71
2023/09/27 03:17:20;;;;;;;41.33;31.20;;;;;;;;;;5079254;28;20200;-71
2023/09/27 03:19:47;;;;;;;42.33;31.70;;;;;;;;;;5072779;28;20217;-71
2023/09/27 03:22:13;;;;;;;42.92;31.67;;;;;;;;;;5088919;28;20188;-71
2023/09/27 03:24:38;;;;;;;44.50;33.83;;;;;;;;;;5088960;28;20710;-71
2023/09/27 03:27:04;;;;;;;44.28;32.95;;;;;;;;;;5088154;28;20192;-71
2023/09/27 03:29:30;;;;;;;40.88;32.78;;;;;;;;;;5086475;28;20203;-71
2023/09/27 03:31:56;;;;;;;41.15;31.10;;;;;;;;;;5072512;28;20197;-71
2023/09/27 03:34:21;;;;;;;44.13;32.63;;;;;;;;;;5077619;28;20188;-71
2023/09/27 03:36:48;;;;;;;43.13;32.75;;;;;;;;;;5044005;28;20498;-71
2023/09/27 03:39:13;;;;;;;40.95;31.60;;;;;;;;;;5092184;28;20215;-71
2023/09/27 03:41:39;;;;;;;41.63;32.00;;;;;;;;;;5087339;28;20231;-71
2023/09/27 03:44:05;;;;;;;41.60;32.40;;;;;;;;;;5087701;28;20196;-71
2023/09/27 03:46:30;;;;;;;41.67;30.02;;;;;;;;;;5087867;28;20184;-71
2023/09/27 03:48:56;;;;;;;42.42;31.90;;;;;;;;;;5093512;28;20200;-71
2023/09/27 03:51:25;;;;;;;48.90;34.95;;;;;;;;;;5068945;28;20187;-71
2023/09/27 03:53:50;;;;;;;44.53;33.28;;;;;;;;;;5090414;28;20562;-71
2023/09/27 03:56:16;;;;;;;42.25;32.95;;;;;;;;;;5088545;28;20247;-71
2023/09/27 03:58:41;;;;;;;42.30;33.58;;;;;;;;;;5087758;28;20188;-71
2023/09/27 04:01:06;;;;;;;43.85;32.90;;;;;;;;;;5077441;28;20235;-71
2023/09/27 04:03:32;;;;;;;40.35;31.98;;;;;;;;;;5079914;28;20228;-71
2023/09/27 04:05:58;;;;;;;47.25;36.00;;;;;;;;;;5084217;28;20181;-71
2023/09/27 04:08:24;;;;;;;40.33;31.48;;;;;;;;;;5086275;28;20192;-71
2023/09/27 04:10:49;;;;;;;40.80;30.08;;;;;;;;;;5087493;28;20680;-71
2023/09/27 04:13:14;;;;;;;38.22;29.67;;;;;;;;;;5087790;28;20226;-71
2023/09/27 04:15:40;;;;;;;38.92;29.02;;;;;;;;;;5086988;28;20192;-71
2023/09/27 04:18:05;;;;;;;36.53;30.38;;;;;;;;;;5091824;28;20216;-71
2023/09/27 04:20:31;;;;;;;41.15;30.42;;;;;;;;;;5093975;28;20212;-72
2023/09/27 04:22:56;;;;;;;40.40;31.13;;;;;;;;;;5088067;28;20196;-71
2023/09/27 04:25:22;;;;;;;42.95;32.65;;;;;;;;;;5086000;28;20200;-72
2023/09/27 04:27:49;;;;;;;38.35;29.05;;;;;;;;;;5067715;28;20280;-71
2023/09/27 04:30:19;;;;;;;42.22;31.50;;;;;;;;;;5070987;28;20565;-71
2023/09/27 04:32:46;;;;;;;40.53;32.00;;;;;;;;;;5066019;28;20198;-71
2023/09/27 04:35:13;;;;;;;44.55;31.88;;;;;;;;;;5090408;28;20668;-71
2023/09/27 04:37:39;;;;;;;39.28;29.10;;;;;;;;;;5089017;28;20560;-71
2023/09/27 04:40:11;;;;;;;41.63;31.73;;;;;;;;;;5093721;28;20225;-71
2023/09/27 04:42:44;;;;;;;44.05;32.00;;;;;;;;;;5088138;28;20199;-71
2023/09/27 04:45:11;;;;;;;50.45;34.15;;;;;;;;;;5087941;28;20659;-71
2023/09/27 04:47:37;;;;;;;41.72;31.30;;;;;;;;;;5070926;28;20279;-71
2023/09/27 04:50:02;;;;;;;42.40;33.35;;;;;;;;;;5069285;28;20283;-71
2023/09/27 04:52:28;;;;;;;43.33;32.10;;;;;;;;;;5073241;28;20570;-71
2023/09/27 04:54:57;;;;;;;42.13;31.75;;;;;;;;;;5067796;28;20234;-71
2023/09/27 04:57:24;;;;;;;42.60;31.58;;;;;;;;;;5098588;28;20190;-71
2023/09/27 04:59:51;;;;;;;43.42;31.48;;;;;;;;;;5087818;28;20204;-71
2023/09/27 05:02:17;;;;;;;42.95;33.22;;;;;;;;;;5089748;28;20236;-71
2023/09/27 05:04:42;;;;;;;39.90;29.75;;;;;;;;;;5075038;28;20276;-71
2023/09/27 05:07:09;;;;;;;44.22;32.22;;;;;;;;;;5089447;28;20200;-71
2023/09/27 05:09:34;;;;;;;45.67;31.75;;;;;;;;;;5093188;28;20270;-71
2023/09/27 05:11:59;;;;;;;44.05;31.38;;;;;;;;;;5069116;28;20575;-71
2023/09/27 05:14:25;;;;;;;40.35;29.67;;;;;;;;;;5085201;28;20250;-71
2023/09/27 05:16:50;;;;;;;39.30;29.80;;;;;;;;;;5088343;28;20675;-72
2023/09/27 05:19:15;;;;;;;42.80;30.92;;;;;;;;;;5087316;28;20184;-72
2023/09/27 05:21:41;;;;;;;41.35;29.40;;;;;;;;;;5085909;28;20832;-72
2023/09/27 05:24:07;;;;;;;39.03;29.70;;;;;;;;;;5088384;28;20199;-72
2023/09/27 05:26:32;;;;;;;39.75;29.83;;;;;;;;;;5091100;28;20184;-71
2023/09/27 05:28:58;;;;;;;38.10;30.13;;;;;;;;;;5067156;28;20200;-72
2023/09/27 05:31:23;;;;;;;40.88;30.90;;;;;;;;;;5086519;28;20232;-71
2023/09/27 05:33:49;;;;;;;39.13;28.92;;;;;;;;;;5069044;28;20203;-72
2023/09/27 05:36:14;;;;;;;44.78;30.42;;;;;;;;;;5087863;28;20390;-72
2023/09/27 05:38:40;;;;;;;41.45;31.42;;;;;;;;;;5087308;28;20192;-72
2023/09/27 05:41:05;;;;;;;38.05;31.85;;;;;;;;;;5083674;28;20846;-72
2023/09/27 05:43:30;;;;;;;46.38;34.45;;;;;;;;;;5083649;28;20188;-72
2023/09/27 05:45:57;;;;;;;49.13;35.40;;;;;;;;;;5086075;28;20543;-72
2023/09/27 05:48:23;;;;;;;44.75;34.30;;;;;;;;;;5087255;28;20195;-72
2023/09/27 05:50:48;;;;;;;47.38;36.67;;;;;;;;;;5088664;28;20565;-72
2023/09/27 05:53:16;;;;;;;53.03;39.05;;;;;;;;;;5074331;28;20184;-72
2023/09/27 05:55:42;;;;;;;56.00;42.70;;;;;;;;;;5069155;28;20184;-72
2023/09/27 05:58:07;;;;;;;55.33;41.50;;;;;;;;;;5089661;28;20208;-72
2023/09/27 06:00:38;;;;;;;57.42;41.88;;;;;;;;;;5086757;28;20680;-72
2023/09/27 06:03:07;;;;;;;62.58;45.10;;;;;;;;;;5089148;28;20291;-71
2023/09/27 06:05:32;;;;;;;63.25;45.00;;;;;;;;;;5077677;28;20191;-70
2023/09/27 06:07:58;;;;;;;68.45;47.88;;;;;;;;;;5088157;28;20256;-71
2023/09/27 06:10:24;;;;;;;62.58;46.17;;;;;;;;;;5085556;28;20195;-71
2023/09/27 06:12:49;;;;;;;59.90;45.00;;;;;;;;;;5066589;28;20203;-72
2023/09/27 06:15:16;;;;;;;55.42;42.92;;;;;;;;;;5099599;28;20269;-71
2023/09/27 06:17:42;;;;;;;56.80;41.63;;;;;;;;;;5074257;28;20718;-71
2023/09/27 06:20:19;;;;;;;53.70;41.17;;;;;;;;;;5100138;28;20872;-71
2023/09/27 06:22:48;;;;;;;51.83;36.63;;;;;;;;;;5053163;28;20191;-71
2023/09/27 06:25:14;;;;;;;50.30;36.65;;;;;;;;;;5044889;28;20177;-71
2023/09/27 06:27:39;;;;;;;49.45;37.83;;;;;;;;;;5064766;28;20229;-71
2023/09/27 06:30:07;;;;;;;48.00;38.40;;;;;;;;;;5062260;28;20562;-71
2023/09/27 06:32:34;;;;;;;47.03;37.97;;;;;;;;;;5069749;28;20202;-71
2023/09/27 06:34:59;;;;;;;56.05;38.97;;;;;;;;;;5078320;28;20195;-71
2023/09/27 06:37:25;;;;;;;54.05;39.40;;;;;;;;;;5084142;28;20189;-71
2023/09/27 06:39:50;;;;;;;50.45;39.70;;;;;;;;;;5080905;28;20213;-71
2023/09/27 06:42:15;;;;;;;61.15;41.78;;;;;;;;;;5049691;28;20280;-71
2023/09/27 06:44:41;;;;;;;53.72;40.55;;;;;;;;;;5083344;28;20212;-71
2023/09/27 06:47:06;;;;;;;58.90;42.22;;;;;;;;;;5084849;28;20687;-71
2023/09/27 06:49:32;;;;;;;53.35;40.85;;;;;;;;;;5079081;28;20648;-71
2023/09/27 06:51:57;;;;;;;53.70;37.25;;;;;;;;;;5086802;28;20188;-71
2023/09/27 06:54:22;;;;;;;52.08;40.00;;;;;;;;;;5066264;28;20265;-71
2023/09/27 06:56:48;;;;;;;48.35;38.42;;;;;;;;;;5072432;28;20240;-71
2023/09/27 06:59:13;;;;;;;46.20;38.53;;;;;;;;;;5092966;28;20196;-71
2023/09/27 07:01:41;;;;;;;51.20;39.25;;;;;;;;;;5074987;28;20530;-71
2023/09/27 07:04:06;;;;;;;53.85;39.00;;;;;;;;;;5092198;28;20278;-71
2023/09/27 07:06:31;;;;;;;47.00;39.38;;;;;;;;;;5101628;28;20686;-71
2023/09/27 07:08:57;;;;;;;47.28;38.63;;;;;;;;;;5069607;28;20214;-71
2023/09/27 07:11:23;;;;;;;45.40;38.38;;;;;;;;;;5074706;28;20185;-72
2023/09/27 07:13:49;;;;;;;48.75;38.90;;;;;;;;;;5086796;28;20524;-72
2023/09/27 07:16:26;;;;;;;48.00;38.83;;;;;;;;;;5080134;28;20610;-72
2023/09/27 07:18:51;;;;;;;47.17;37.42;;;;;;;;;;5057635;28;20188;-71
2023/09/27 07:21:19;;;;;;;48.03;37.28;;;;;;;;;;5080768;28;20219;-71
2023/09/27 07:23:45;;;;;;;45.42;37.65;;;;;;;;;;5086990;28;20206;-71
2023/09/27 07:26:11;;;;;;;42.47;36.42;;;;;;;;;;5086293;28;20176;-72
2023/09/27 07:28:37;;;;;;;41.22;34.10;;;;;;;;;;5076451;28;20191;-72
2023/09/27 07:31:03;;;;;;;40.17;33.40;;;;;;;;;;5086418;28;20183;-71
2023/09/27 07:33:31;;;;;;;43.42;35.55;;;;;;;;;;5086857;28;20180;-71
2023/09/27 07:35:58;;;;;;;40.33;33.55;;;;;;;;;;5086341;28;20196;-72
2023/09/27 07:38:23;;;;;;;43.65;33.38;;;;;;;;;;5081792;28;20363;-72
2023/09/27 07:40:49;;;;;;;40.65;32.80;;;;;;;;;;5086127;28;20714;-71
2023/09/27 07:43:15;;;;;;;37.10;31.75;;;;;;;;;;5099941;28;20184;-71
2023/09/27 07:45:44;;;;;;;36.67;30.17;;;;;;;;;;5096547;28;20562;-72
2023/09/27 07:48:10;;;;;;;37.38;30.63;;;;;;;;;;5093501;28;20649;-72
2023/09/27 07:50:38;;;;;;;37.63;30.85;;;;;;;;;;5067231;28;20211;-72
2023/09/27 07:53:06;;;;;;;36.13;29.33;;;;;;;;;;5084358;28;20313;-72
2023/09/27 07:55:35;;;;;;;34.47;29.67;;;;;;;;;;5085182;28;20195;-72
2023/09/27 07:58:03;;;;;;;31.65;28.25;;;;;;;;;;5084563;28;20257;-72
2023/09/27 08:00:29;;;;;;;38.05;28.88;;;;;;;;;;5087248;28;20319;-72
2023/09/27 08:02:58;;;;;;;34.92;30.00;;;;;;;;;;5085502;28;20231;-72
2023/09/27 08:05:24;;;;;;;32.40;28.60;;;;;;;;;;5099813;28;20188;-72
2023/09/27 08:07:50;;;;;;;33.38;28.17;;;;;;;;;;5091139;28;20196;-72
2023/09/27 08:10:17;;;;;;;33.95;29.42;;;;;;;;;;5091444;28;20218;-72
2023/09/27 08:12:43;;;;;;;37.70;29.27;;;;;;;;;;5057929;28;20590;-72
2023/09/27 08:15:10;;;;;;;35.42;27.92;;;;;;;;;;5083229;28;20203;-72
2023/09/27 08:17:36;;;;;;;37.03;29.08;;;;;;;;;;5092313;28;20188;-72
2023/09/27 08:20:07;;;;;;;32.83;27.73;;;;;;;;;;5097596;28;20665;-72
2023/09/27 08:22:34;;;;;;;34.03;29.10;;;;;;;;;;5096254;28;20275;-72
2023/09/27 08:25:00;;;;;;;34.72;27.55;;;;;;;;;;5097916;28;20184;-72
2023/09/27 08:27:26;;;;;;;31.92;27.40;;;;;;;;;;5102906;28;20194;-72
2023/09/27 08:29:52;;;;;;;33.60;28.00;;;;;;;;;;5090316;28;20190;-72
2023/09/27 08:32:17;;;;;;;33.65;28.23;;;;;;;;;;5085281;28;20560;-64
2023/09/27 08:34:43;;;;;;;32.90;27.45;;;;;;;;;;5076585;28;20624;-63
2023/09/27 08:37:11;;;;;;;32.03;26.33;;;;;;;;;;5082208;28;20196;-63
2023/09/27 08:39:37;;;;;;;31.83;27.25;;;;;;;;;;5070972;28;20291;-64
2023/09/27 08:42:02;;;;;;;34.40;26.63;;;;;;;;;;5086217;28;20571;-65
2023/09/27 08:44:28;;;;;;;31.85;26.10;;;;;;;;;;5094296;28;20199;-64
2023/09/27 08:46:54;;;;;;;29.20;26.10;;;;;;;;;;5094420;28;20271;-64
2023/09/27 08:49:20;;;;;;;29.92;25.88;;;;;;;;;;5079735;28;20650;-64
2023/09/27 08:51:46;;;;;;;31.50;26.02;;;;;;;;;;5097067;28;20199;-64
2023/09/27 08:54:16;;;;;;;30.00;25.02;;;;;;;;;;5086894;28;20195;-64
2023/09/27 08:56:46;;;;;;;30.42;26.50;;;;;;;;;;5086708;28;20188;-64
2023/09/27 08:59:12;;;;;;;30.60;25.65;;;;;;;;;;5090434;28;20223;-64
2023/09/27 09:01:39;;;;;;;28.27;23.80;;;;;;;;;;5091282;28;20604;-62
2023/09/27 09:04:06;;;;;;;28.65;23.95;;;;;;;;;;5084198;28;20274;-61
2023/09/27 09:06:32;;;;;;;31.23;25.30;;;;;;;;;;5090664;28;20282;-66
2023/09/27 09:09:04;;;;;;;27.92;23.13;;;;;;;;;;5087170;28;20686;-63
2023/09/27 09:11:31;;;;;;;29.80;22.67;;;;;;;;;;5090731;28;20187;-63
2023/09/27 09:14:03;;;;;;;27.95;21.83;;;;;;;;;;5088563;28;20503;-63
2023/09/27 09:16:47;;;;;;;25.52;22.80;;;;;;;;;;5089512;28;20192;-63
2023/09/27 09:19:26;;;;;;;26.05;22.80;;;;;;;;;;5101283;28;20624;-63
2023/09/27 09:22:11;;;;;;;26.48;21.52;;;;;;;;;;5097425;28;20195;-63
2023/09/27 09:24:45;;;;;;;28.67;20.42;;;;;;;;;;5087741;28;20206;-63
2023/09/27 09:27:13;;;;;;;26.42;20.02;;;;;;;;;;5082484;28;20180;-63
2023/09/27 09:29:48;;;;;;;22.08;18.90;;;;;;;;;;5088627;28;20206;-63
2023/09/27 09:32:18;;;;;;;22.70;17.70;;;;;;;;;;5082798;28;20198;-62
2023/09/27 09:34:45;;;;;;;22.48;18.38;;;;;;;;;;5090307;28;20188;-63
2023/09/27 09:37:17;;;;;;;23.90;18.08;;;;;;;;;;5079647;28;20831;-58
2023/09/27 09:39:43;;;;;;;22.15;18.58;;;;;;;;;;5088185;28;20703;-59
2023/09/27 09:42:09;;;;;;;22.17;19.88;;;;;;;;;;5084906;28;20192;-59
2023/09/27 09:44:34;;;;;;;23.48;18.67;;;;;;;;;;5077456;28;20184;-66
2023/09/27 09:47:11;;;;;;;21.13;17.38;;;;;;;;;;5105779;28;20192;-65
2023/09/27 09:49:37;;;;;;;25.45;18.65;;;;;;;;;;5091006;28;20186;-64
2023/09/27 09:52:03;;;;;;;26.25;19.00;;;;;;;;;;5098712;28;20274;-64
2023/09/27 09:54:49;;;;;;;27.88;18.77;;;;;;;;;;5093889;28;20180;-61
2023/09/27 09:57:14;;;;;;;26.55;17.88;;;;;;;;;;5100788;28;20753;-63
2023/09/27 09:59:58;;;;;;;18.80;16.50;;;;;;;;;;5097887;28;20207;-63
2023/09/27 10:02:27;;;;;;;23.15;17.48;;;;;;;;;;5086994;28;20242;-63
2023/09/27 10:04:56;;;;;;;24.33;18.20;;;;;;;;;;5105532;28;20537;-63
2023/09/27 10:07:25;;;;;;;22.10;17.02;;;;;;;;;;5104624;28;20660;-61
2023/09/27 10:09:52;;;;;;;23.40;17.70;;;;;;;;;;5090675;28;20191;-62
2023/09/27 10:12:18;;;;;;;26.02;17.88;;;;;;;;;;5071731;28;20180;-62
2023/09/27 10:14:45;;;;;;;24.13;17.02;;;;;;;;;;5083234;28;20342;-62
2023/09/27 10:17:21;;;;;;;21.67;17.23;;;;;;;;;;5082811;28;20617;-63
2023/09/27 10:20:13;;;;;;;24.02;18.20;;;;;;;;;;5076691;28;20254;-63
2023/09/27 10:22:43;;;;;;;21.52;16.80;;;;;;;;;;5079139;28;20191;-66
2023/09/27 10:25:28;;;;;;;17.17;15.38;;;;;;;;;;5083180;28;20196;-62
2023/09/27 10:28:04;;;;;;;22.58;15.70;;;;;;;;;;5091341;28;20184;-62
2023/09/27 10:30:44;;;;;;;18.20;15.88;;;;;;;;;;5083405;28;20596;-62
2023/09/27 10:33:30;;;;;;;20.67;15.27;;;;;;;;;;5093016;28;20196;-62
2023/09/27 10:36:01;;;;;;;20.10;15.73;;;;;;;;;;5089652;28;20206;-62
2023/09/27 10:38:49;;;;;;;17.55;15.30;;;;;;;;;;5087590;28;20208;-62
2023/09/27 10:41:42;;;;;;;17.27;14.50;;;;;;;;;;5082317;28;20201;-62
2023/09/27 10:44:08;;;;;;;18.55;15.20;;;;;;;;;;5087765;28;20184;-63
2023/09/27 10:46:41;;;;;;;15.25;13.30;;;;;;;;;;5090167;28;20595;-63
2023/09/27 10:49:06;;;;;;;15.70;13.85;;;;;;;;;;5086696;28;20550;-63
2023/09/27 10:51:32;;;;;;;18.23;13.43;;;;;;;;;;5088590;28;20271;-63
2023/09/27 10:53:57;;;;;;;19.83;13.05;;;;;;;;;;5073585;28;20206;-63
2023/09/27 10:56:23;;;;;;;15.75;12.38;;;;;;;;;;5079486;28;20193;-63
2023/09/27 10:58:52;;;;;;;16.88;13.55;;;;;;;;;;5091525;28;20195;-63
2023/09/27 11:01:22;;;;;;;16.05;13.27;;;;;;;;;;5080273;28;20276;-63
2023/09/27 11:03:48;;;;;;;19.20;14.82;;;;;;;;;;5085860;28;20358;-63
2023/09/27 11:06:14;;;;;;;17.73;13.68;;;;;;;;;;5075645;28;20283;-63
2023/09/27 11:08:40;;;;;;;18.75;14.70;;;;;;;;;;5080637;28;20203;-63
2023/09/27 11:11:11;;;;;;;19.95;14.82;;;;;;;;;;5078951;28;20191;-63
2023/09/27 11:13:46;;;;;;;19.38;14.73;;;;;;;;;;5084518;28;20279;-63
2023/09/27 11:16:18;;;;;;;17.33;13.23;;;;;;;;;;5082364;28;20669;-63
2023/09/27 11:18:51;;;;;;;17.17;13.18;;;;;;;;;;5075593;28;20181;-63
2023/09/27 11:21:17;;;;;;;17.35;12.70;;;;;;;;;;5086391;28;20220;-63
2023/09/27 11:24:01;;;;;;;16.63;12.18;;;;;;;;;;5087527;28;20247;-63
2023/09/27 11:26:31;;;;;;;13.02;11.45;;;;;;;;;;5086407;28;22053;-63
2023/09/27 11:29:01;;;;;;;13.25;11.20;;;;;;;;;;5087027;28;20188;-63
2023/09/27 11:31:33;;;;;;;13.07;11.00;;;;;;;;;;5085551;28;20241;-63
2023/09/27 11:34:16;;;;;;;15.00;10.38;;;;;;;;;;5088782;28;20754;-63
2023/09/27 11:36:42;;;;;;;13.02;9.45;;;;;;;;;;5097478;28;20194;-63
2023/09/27 11:39:08;;;;;;;12.65;9.68;;;;;;;;;;5095992;28;20546;-63
2023/09/27 11:41:34;;;;;;;15.20;8.77;;;;;;;;;;5100879;28;20207;-63
2023/09/27 11:43:59;;;;;;;11.07;8.90;;;;;;;;;;5084635;28;20744;-63
2023/09/27 11:46:27;;;;;;;11.60;9.30;;;;;;;;;;5087322;28;20211;-63
2023/09/27 11:48:52;;;;;;;12.98;9.48;;;;;;;;;;5084920;28;20185;-63
2023/09/27 11:51:17;;;;;;;11.63;8.50;;;;;;;;;;5086469;28;20655;-63
2023/09/27 11:53:45;;;;;;;11.65;8.55;;;;;;;;;;5088107;28;20281;-63
2023/09/27 11:56:11;;;;;;;10.40;7.82;;;;;;;;;;5095037;28;20243;-63
2023/09/27 11:58:36;;;;;;;11.45;7.70;;;;;;;;;;5088394;28;20299;-63
2023/09/27 12:01:02;;;;;;;12.50;7.28;;;;;;;;;;5094363;28;20220;-65
2023/09/27 12:03:28;;;;;;;11.68;6.57;;;;;;;;;;5088630;28;20258;-64
2023/09/27 12:05:53;;;;;;;11.68;6.63;;;;;;;;;;5094701;28;20583;-63
2023/09/27 12:08:20;;;;;;;12.43;6.40;;;;;;;;;;5092934;28;20211;-62
2023/09/27 12:10:45;;;;;;;11.40;6.82;;;;;;;;;;5092511;28;20176;-62
2023/09/27 12:13:10;;;;;;;10.25;6.55;;;;;;;;;;5084986;28;20189;-63
2023/09/27 12:15:36;;;;;;;7.68;6.40;;;;;;;;;;5086847;28;20192;-63
2023/09/27 12:18:02;;;;;;;9.20;6.85;;;;;;;;;;5092653;28;20253;-63
2023/09/27 12:20:27;;;;;;;9.13;6.50;;;;;;;;;;5089630;28;20576;-63
2023/09/27 12:22:53;;;;;;;10.20;6.55;;;;;;;;;;5091416;28;20211;-63
2023/09/27 12:25:19;;;;;;;11.73;7.20;;;;;;;;;;5091811;28;20265;-63
2023/09/27 12:27:44;;;;;;;17.52;7.18;;;;;;;;;;5091665;28;20245;-64
2023/09/27 12:30:10;;;;;;;9.95;6.65;;;;;;;;;;5112216;28;20188;-63
2023/09/27 12:32:36;;;;;;;12.45;6.28;;;;;;;;;;5072795;28;20200;-63
2023/09/27 12:35:03;;;;;;;11.90;6.55;;;;;;;;;;5088072;28;20216;-63
2023/09/27 12:37:29;;;;;;;8.73;6.38;;;;;;;;;;5083914;28;20200;-63
2023/09/27 12:39:55;;;;;;;12.18;6.47;;;;;;;;;;5078424;28;20290;-63
2023/09/27 12:42:20;;;;;;;11.85;6.35;;;;;;;;;;5084854;28;20195;-65
2023/09/27 12:44:45;;;;;;;9.05;6.13;;;;;;;;;;5088394;28;20184;-62
2023/09/27 12:47:11;;;;;;;9.63;5.97;;;;;;;;;;5079873;28;20203;-64
2023/09/27 12:49:36;;;;;;;11.63;6.07;;;;;;;;;;5080930;28;20215;-63
2023/09/27 12:52:02;;;;;;;7.82;5.82;;;;;;;;;;5081615;28;20216;-63
2023/09/27 12:54:27;;;;;;;8.77;6.35;;;;;;;;;;5072681;28;20427;-63
2023/09/27 12:56:52;;;;;;;9.73;6.00;;;;;;;;;;5083487;28;20200;-71
2023/09/27 12:59:18;;;;;;;10.98;7.00;;;;;;;;;;5100891;28;20553;-63
2023/09/27 13:01:43;;;;;;;13.65;6.43;;;;;;;;;;5091417;28;20224;-63
2023/09/27 13:04:09;;;;;;;9.50;6.40;;;;;;;;;;5089636;28;20274;-63
2023/09/27 13:06:34;;;;;;;11.63;7.10;;;;;;;;;;5090901;28;20244;-63
2023/09/27 13:09:01;;;;;;;12.15;7.30;;;;;;;;;;5090071;28;20192;-73
2023/09/27 13:11:26;;;;;;;13.05;7.40;;;;;;;;;;5081271;28;20542;-71
2023/09/27 13:13:52;;;;;;;10.45;6.90;;;;;;;;;;5073222;28;20200;-64
2023/09/27 13:16:17;;;;;;;9.80;6.97;;;;;;;;;;5096805;28;21084;-64
2023/09/27 13:18:42;;;;;;;12.43;7.25;;;;;;;;;;5103866;28;20206;-64
2023/09/27 13:21:11;;;;;;;9.98;6.88;;;;;;;;;;5091718;28;20212;-67
2023/09/27 13:23:37;;;;;;;7.45;6.10;;;;;;;;;;5081140;28;20617;-67
2023/09/27 13:26:02;;;;;;;11.90;6.57;;;;;;;;;;5062714;28;20208;-68
2023/09/27 13:28:28;;;;;;;12.65;7.78;;;;;;;;;;4385591;28;10000693;-63
2023/09/27 13:30:54;;;;;;;10.70;7.22;;;;;;;;;;5080358;28;20212;-63
2023/09/27 13:33:19;;;;;;;11.43;7.47;;;;;;;;;;5086686;28;20188;-63
2023/09/27 13:35:44;;;;;;;9.80;7.05;;;;;;;;;;5089381;28;20287;-63
2023/09/27 13:38:13;;;;;;;14.27;7.25;;;;;;;;;;5079326;28;20196;-63
2023/09/27 13:40:38;;;;;;;8.75;6.88;;;;;;;;;;5081637;28;20308;-63
2023/09/27 13:43:04;;;;;;;9.48;6.30;;;;;;;;;;5081425;28;20272;-63
2023/09/27 13:45:29;;;;;;;11.00;7.80;;;;;;;;;;5069700;28;20652;-70
2023/09/27 13:47:55;;;;;;;9.25;6.95;;;;;;;;;;5083857;28;20271;-63
2023/09/27 13:50:20;;;;;;;9.77;7.15;;;;;;;;;;5075423;28;20188;-63
2023/09/27 13:52:46;;;;;;;11.60;7.22;;;;;;;;;;5085736;28;20238;-64
2023/09/27 13:55:12;;;;;;;10.63;7.75;;;;;;;;;;5067237;28;20184;-64
2023/09/27 13:57:41;;;;;;;15.25;7.60;;;;;;;;;;5087130;28;20191;-65
2023/09/27 14:00:08;;;;;;;10.05;6.45;;;;;;;;;;5086387;28;20204;-64
2023/09/27 14:02:37;;;;;;;11.68;7.60;;;;;;;;;;5084755;28;20242;-63
2023/09/27 14:05:03;;;;;;;14.43;7.70;;;;;;;;;;5080919;28;20262;-63
2023/09/27 14:07:29;;;;;;;10.70;5.78;;;;;;;;;;5090320;28;20270;-64
2023/09/27 14:09:54;;;;;;;10.40;6.25;;;;;;;;;;5080399;28;20204;-63
2023/09/27 14:12:20;;;;;;;11.35;6.05;;;;;;;;;;5090770;28;20212;-69
2023/09/27 14:14:46;;;;;;;9.32;6.00;;;;;;;;;;5093411;28;20230;-63
2023/09/27 14:17:12;;;;;;;9.80;6.40;;;;;;;;;;5082153;28;20234;-63
2023/09/27 14:19:38;;;;;;;9.98;5.72;;;;;;;;;;5082958;28;20188;-67
2023/09/27 14:22:05;;;;;;;8.70;5.75;;;;;;;;;;5079842;28;20184;-66